Time;durP1;ratioP1;P1;durP2;ratioP2;P2;SDS_P1;SDS_P2;PMS_P1;PMS_P2;Temp;Humidity;BMP_temperature;BMP_pressure;BME280_temperature;BME280_humidity;BME280_pressure;Samples;Min_cycle;Max_cycle;Signal;HPM_P1;HPM_P2
2020/12/30 00:00:03;;;;;;;35.87;17.87;;;;;;;;;;5016955;28;20100;-81
2020/12/30 00:02:29;;;;;;;38.43;18.27;;;;;;;;;;5015485;28;20053;-81
2020/12/30 00:04:55;;;;;;;34.23;17.47;;;;;;;;;;5011853;28;20436;-81
2020/12/30 00:07:20;;;;;;;33.93;18.03;;;;;;;;;;5009762;28;20022;-81
2020/12/30 00:09:45;;;;;;;31.97;16.83;;;;;;;;;;5017082;28;20026;-81
2020/12/30 00:12:11;;;;;;;35.30;17.63;;;;;;;;;;5014288;28;20084;-81
2020/12/30 00:14:39;;;;;;;44.20;22.47;;;;;;;;;;5015339;28;20040;-81
2020/12/30 00:17:04;;;;;;;55.67;22.63;;;;;;;;;;5015464;28;20026;-81
2020/12/30 00:19:29;;;;;;;37.03;18.13;;;;;;;;;;5008716;28;20037;-81
2020/12/30 00:21:55;;;;;;;41.70;18.90;;;;;;;;;;5013266;28;20029;-81
2020/12/30 00:24:20;;;;;;;37.73;18.53;;;;;;;;;;5015269;28;20476;-81
2020/12/30 00:26:45;;;;;;;51.17;20.97;;;;;;;;;;5014916;28;20048;-81
2020/12/30 00:29:10;;;;;;;39.43;19.30;;;;;;;;;;5015200;28;20125;-81
2020/12/30 00:31:35;;;;;;;43.00;19.57;;;;;;;;;;5014454;28;20447;-81
2020/12/30 00:34:01;;;;;;;38.77;20.07;;;;;;;;;;5014780;28;20113;-81
2020/12/30 00:36:26;;;;;;;42.00;21.17;;;;;;;;;;5031471;28;20030;-81
2020/12/30 00:38:52;;;;;;;41.57;18.73;;;;;;;;;;5014834;28;20357;-81
2020/12/30 00:41:17;;;;;;;39.17;19.43;;;;;;;;;;5014851;28;20481;-81
2020/12/30 00:43:42;;;;;;;41.23;18.17;;;;;;;;;;5014650;28;20018;-81
2020/12/30 00:46:17;;;;;;;34.97;17.97;;;;;;;;;;5014685;28;20396;-81
2020/12/30 00:48:43;;;;;;;38.80;18.87;;;;;;;;;;5015869;28;20468;-81
2020/12/30 00:51:11;;;;;;;34.53;17.20;;;;;;;;;;5015527;28;20025;-81
2020/12/30 00:53:36;;;;;;;33.00;17.97;;;;;;;;;;5030940;28;20025;-81
2020/12/30 00:56:02;;;;;;;37.40;17.13;;;;;;;;;;5014718;28;20029;-81
2020/12/30 00:58:27;;;;;;;30.97;16.70;;;;;;;;;;5014619;28;20416;-81
2020/12/30 01:00:52;;;;;;;37.77;17.57;;;;;;;;;;5014490;28;20125;-82
2020/12/30 01:03:17;;;;;;;37.20;16.60;;;;;;;;;;5014453;28;20026;-81
2020/12/30 01:05:42;;;;;;;32.93;16.50;;;;;;;;;;5014339;28;20014;-81
2020/12/30 01:08:08;;;;;;;33.77;16.77;;;;;;;;;;5014484;28;20383;-81
2020/12/30 01:10:33;;;;;;;29.20;16.57;;;;;;;;;;5014169;28;20018;-81
2020/12/30 01:12:58;;;;;;;29.97;15.73;;;;;;;;;;5014594;28;20108;-81
2020/12/30 01:15:23;;;;;;;30.97;15.47;;;;;;;;;;5014573;28;20036;-81
2020/12/30 01:17:48;;;;;;;38.87;16.80;;;;;;;;;;5014244;28;20476;-81
2020/12/30 01:20:13;;;;;;;29.00;16.00;;;;;;;;;;5014001;28;20072;-81
2020/12/30 01:22:39;;;;;;;30.93;14.60;;;;;;;;;;5014099;28;20026;-81
2020/12/30 01:25:04;;;;;;;37.83;16.17;;;;;;;;;;5013765;28;20380;-81
2020/12/30 01:27:29;;;;;;;35.40;17.27;;;;;;;;;;5013387;28;20136;-81
2020/12/30 01:29:54;;;;;;;31.57;16.47;;;;;;;;;;5014083;28;20067;-81
2020/12/30 01:32:19;;;;;;;37.03;16.87;;;;;;;;;;5013925;28;20025;-81
2020/12/30 01:34:45;;;;;;;33.03;16.80;;;;;;;;;;5030439;28;20025;-82
2020/12/30 01:37:10;;;;;;;33.10;15.93;;;;;;;;;;5014912;28;20028;-81
2020/12/30 01:39:35;;;;;;;31.17;15.97;;;;;;;;;;5013700;28;20531;-81
2020/12/30 01:42:00;;;;;;;30.27;16.77;;;;;;;;;;5014763;28;20125;-81
2020/12/30 01:44:25;;;;;;;32.63;16.73;;;;;;;;;;5015239;28;20456;-81
2020/12/30 01:46:51;;;;;;;29.07;15.07;;;;;;;;;;5012428;28;20076;-81
2020/12/30 01:49:17;;;;;;;33.00;15.03;;;;;;;;;;5013626;28;20076;-81
2020/12/30 01:51:43;;;;;;;27.57;15.10;;;;;;;;;;5014896;28;20018;-81
2020/12/30 01:54:10;;;;;;;28.77;15.90;;;;;;;;;;5010905;28;20379;-81
2020/12/30 01:56:35;;;;;;;32.40;17.13;;;;;;;;;;5013480;28;20026;-81
2020/12/30 01:59:04;;;;;;;28.10;15.43;;;;;;;;;;5014534;28;20022;-81
2020/12/30 02:01:29;;;;;;;29.97;15.10;;;;;;;;;;5013510;28;20109;-81
2020/12/30 02:03:56;;;;;;;30.03;15.50;;;;;;;;;;5013763;28;20100;-81
2020/12/30 02:06:21;;;;;;;29.67;15.40;;;;;;;;;;5013409;28;20018;-81
2020/12/30 02:08:46;;;;;;;26.40;14.40;;;;;;;;;;5013066;28;20491;-82
2020/12/30 02:11:12;;;;;;;28.73;14.30;;;;;;;;;;5012905;28;20030;-81
2020/12/30 02:13:37;;;;;;;30.80;14.97;;;;;;;;;;5011849;28;20037;-81
2020/12/30 02:16:02;;;;;;;33.53;15.07;;;;;;;;;;5010896;28;20021;-81
2020/12/30 02:18:27;;;;;;;28.53;14.50;;;;;;;;;;5013012;28;20025;-82
2020/12/30 02:20:52;;;;;;;28.87;15.07;;;;;;;;;;5013135;28;20032;-81
2020/12/30 02:23:18;;;;;;;31.07;16.07;;;;;;;;;;5012848;28;20021;-81
2020/12/30 02:25:44;;;;;;;33.23;15.33;;;;;;;;;;5013107;28;20014;-82
2020/12/30 02:28:10;;;;;;;34.07;16.80;;;;;;;;;;5012982;28;20404;-82
2020/12/30 02:30:36;;;;;;;31.63;15.80;;;;;;;;;;5012531;28;20077;-82
2020/12/30 02:33:01;;;;;;;33.87;15.53;;;;;;;;;;5012870;28;20480;-81
2020/12/30 02:35:26;;;;;;;32.87;14.37;;;;;;;;;;5014237;28;20033;-82
2020/12/30 02:37:51;;;;;;;26.60;14.77;;;;;;;;;;5012751;28;20435;-82
2020/12/30 02:40:17;;;;;;;27.50;13.80;;;;;;;;;;5011836;28;20036;-82
2020/12/30 02:42:42;;;;;;;30.13;14.27;;;;;;;;;;5012425;28;20022;-82
2020/12/30 02:45:08;;;;;;;29.93;15.30;;;;;;;;;;5012682;28;20460;-82
2020/12/30 02:47:34;;;;;;;29.70;14.20;;;;;;;;;;5013592;28;20021;-81
2020/12/30 02:49:59;;;;;;;28.40;15.00;;;;;;;;;;5012633;28;20017;-82
2020/12/30 02:52:25;;;;;;;26.33;14.20;;;;;;;;;;5012585;28;20022;-82
2020/12/30 02:54:51;;;;;;;28.57;13.93;;;;;;;;;;5026353;28;20049;-81
2020/12/30 02:57:16;;;;;;;31.60;15.97;;;;;;;;;;5012489;28;20022;-81
2020/12/30 02:59:41;;;;;;;27.80;14.33;;;;;;;;;;5012266;28;20032;-81
2020/12/30 03:02:06;;;;;;;29.83;14.63;;;;;;;;;;5013587;28;20403;-82
2020/12/30 03:04:31;;;;;;;31.57;15.30;;;;;;;;;;5013603;28;20068;-82
2020/12/30 03:06:57;;;;;;;31.53;14.43;;;;;;;;;;5012446;28;20030;-82
2020/12/30 03:09:22;;;;;;;29.70;14.37;;;;;;;;;;5012084;28;20026;-82
2020/12/30 03:11:48;;;;;;;26.83;14.60;;;;;;;;;;5012125;28;20018;-81
2020/12/30 03:14:13;;;;;;;26.53;14.50;;;;;;;;;;5013306;28;20033;-82
2020/12/30 03:16:38;;;;;;;29.23;14.83;;;;;;;;;;5012105;28;20018;-81
2020/12/30 03:19:03;;;;;;;28.30;14.43;;;;;;;;;;5012229;28;20017;-81
2020/12/30 03:21:28;;;;;;;27.70;14.43;;;;;;;;;;5012268;28;20025;-81
2020/12/30 03:23:53;;;;;;;29.73;15.10;;;;;;;;;;5012976;28;20041;-81
2020/12/30 03:26:19;;;;;;;31.47;15.57;;;;;;;;;;5012237;28;20025;-82
2020/12/30 03:28:44;;;;;;;29.33;14.33;;;;;;;;;;5013238;28;20101;-81
2020/12/30 03:31:09;;;;;;;29.90;14.83;;;;;;;;;;5013532;28;20464;-81
2020/12/30 03:33:34;;;;;;;27.53;15.07;;;;;;;;;;5013423;28;20026;-81
2020/12/30 03:35:59;;;;;;;27.83;14.80;;;;;;;;;;5011641;28;20480;-81
2020/12/30 03:38:25;;;;;;;31.93;14.77;;;;;;;;;;5013449;28;20053;-81
2020/12/30 03:40:50;;;;;;;29.00;15.90;;;;;;;;;;5012058;28;20028;-81
2020/12/30 03:43:15;;;;;;;29.83;15.90;;;;;;;;;;5012123;28;20022;-81
2020/12/30 03:45:40;;;;;;;34.00;15.57;;;;;;;;;;5013185;28;20022;-81
2020/12/30 03:48:05;;;;;;;28.87;15.23;;;;;;;;;;5012141;28;20072;-82
2020/12/30 03:50:31;;;;;;;28.73;13.03;;;;;;;;;;5012064;28;20041;-81
2020/12/30 03:52:56;;;;;;;29.60;14.67;;;;;;;;;;5011949;28;20024;-81
2020/12/30 03:55:21;;;;;;;35.90;14.60;;;;;;;;;;5012108;28;20022;-81
2020/12/30 03:57:46;;;;;;;30.40;15.03;;;;;;;;;;5011800;28;20081;-81
2020/12/30 04:00:11;;;;;;;30.13;13.90;;;;;;;;;;5012055;28;20026;-81
2020/12/30 04:02:36;;;;;;;27.50;13.93;;;;;;;;;;5011684;28;20033;-81
2020/12/30 04:05:02;;;;;;;33.90;14.87;;;;;;;;;;5011270;28;20372;-81
2020/12/30 04:07:27;;;;;;;32.97;15.43;;;;;;;;;;5013213;28;20026;-81
2020/12/30 04:09:52;;;;;;;27.43;15.00;;;;;;;;;;5011770;28;20472;-81
2020/12/30 04:12:17;;;;;;;29.07;15.33;;;;;;;;;;5013149;28;20021;-81
2020/12/30 04:14:42;;;;;;;31.10;15.20;;;;;;;;;;5011550;28;20364;-81
2020/12/30 04:17:08;;;;;;;28.00;14.63;;;;;;;;;;5011933;28;20028;-81
2020/12/30 04:19:33;;;;;;;27.27;14.07;;;;;;;;;;5012866;28;20065;-80
2020/12/30 04:21:58;;;;;;;32.80;15.63;;;;;;;;;;5011641;28;20024;-81
2020/12/30 04:24:23;;;;;;;30.33;15.47;;;;;;;;;;5011806;28;20468;-81
2020/12/30 04:26:48;;;;;;;30.77;14.80;;;;;;;;;;5013537;28;20075;-82
2020/12/30 04:29:14;;;;;;;30.57;14.70;;;;;;;;;;5015273;28;20026;-81
2020/12/30 04:31:39;;;;;;;33.77;16.03;;;;;;;;;;5014125;28;20017;-81
2020/12/30 04:34:05;;;;;;;31.00;14.00;;;;;;;;;;5014983;28;20120;-81
2020/12/30 04:36:30;;;;;;;29.30;14.13;;;;;;;;;;5015090;28;20037;-81
2020/12/30 04:38:55;;;;;;;32.13;14.13;;;;;;;;;;5014928;28;20032;-81
2020/12/30 04:41:26;;;;;;;28.23;13.23;;;;;;;;;;5015013;28;20049;-81
2020/12/30 04:43:51;;;;;;;25.57;12.87;;;;;;;;;;5014837;28;20369;-81
2020/12/30 04:46:17;;;;;;;27.97;14.27;;;;;;;;;;5014842;28;20028;-82
2020/12/30 04:48:42;;;;;;;30.03;14.90;;;;;;;;;;5014881;28;20068;-81
2020/12/30 04:51:09;;;;;;;30.03;14.00;;;;;;;;;;5016065;28;20017;-81
2020/12/30 04:53:35;;;;;;;26.97;13.90;;;;;;;;;;5016409;28;20096;-81
2020/12/30 04:56:01;;;;;;;28.83;13.60;;;;;;;;;;5014630;28;20537;-81
2020/12/30 04:58:30;;;;;;;27.77;15.30;;;;;;;;;;5014781;28;20033;-81
2020/12/30 05:00:56;;;;;;;29.63;14.57;;;;;;;;;;5014207;28;20025;-81
2020/12/30 05:03:25;;;;;;;27.50;13.90;;;;;;;;;;5005678;28;20080;-81
2020/12/30 05:05:51;;;;;;;30.87;13.87;;;;;;;;;;5014322;28;20022;-81
2020/12/30 05:08:17;;;;;;;25.50;14.07;;;;;;;;;;5015835;28;20460;-81
2020/12/30 05:10:44;;;;;;;31.57;13.93;;;;;;;;;;5014468;28;20029;-81
2020/12/30 05:13:09;;;;;;;27.47;14.20;;;;;;;;;;5014135;28;20024;-81
2020/12/30 05:15:34;;;;;;;29.13;14.33;;;;;;;;;;5013670;28;20029;-81
2020/12/30 05:18:02;;;;;;;28.03;14.77;;;;;;;;;;5014233;28;20216;-81
2020/12/30 05:20:35;;;;;;;27.97;13.67;;;;;;;;;;5014346;28;20076;-81
2020/12/30 05:23:00;;;;;;;;;;;;;;;;;;5015895;28;20037;-81
2020/12/30 05:25:26;;;;;;;27.63;14.38;;;;;;;;;;5013968;28;19905;-81
2020/12/30 05:27:52;;;;;;;31.77;13.80;;;;;;;;;;5014401;28;20360;-81
2020/12/30 05:30:17;;;;;;;36.23;15.47;;;;;;;;;;5013776;28;20030;-81
2020/12/30 05:32:42;;;;;;;29.37;14.83;;;;;;;;;;5004156;28;20134;-81
2020/12/30 05:35:07;;;;;;;31.30;15.57;;;;;;;;;;5027059;28;20104;-81
2020/12/30 05:37:33;;;;;;;31.23;15.13;;;;;;;;;;5029873;28;20455;-81
2020/12/30 05:39:59;;;;;;;25.07;14.10;;;;;;;;;;5015155;28;20433;-81
2020/12/30 05:42:24;;;;;;;38.37;16.87;;;;;;;;;;5028828;28;20097;-81
2020/12/30 05:44:50;;;;;;;28.40;15.43;;;;;;;;;;5013811;28;20050;-81
2020/12/30 05:47:17;;;;;;;35.07;15.00;;;;;;;;;;5014944;28;20022;-81
2020/12/30 05:49:43;;;;;;;27.93;15.47;;;;;;;;;;5015400;28;20368;-81
2020/12/30 05:52:15;;;;;;;32.30;16.37;;;;;;;;;;5013740;28;20021;-81
2020/12/30 05:54:40;;;;;;;;;;;;;;;;;;5014052;28;20083;-81
2020/12/30 05:57:18;;;;;;;32.67;15.73;;;;;;;;;;5013594;28;19988;-81
2020/12/30 05:59:44;;;;;;;32.33;15.07;;;;;;;;;;5013378;28;20018;-80
2020/12/30 06:02:09;;;;;;;30.93;15.50;;;;;;;;;;5014690;28;20368;-81
2020/12/30 06:04:34;;;;;;;28.47;15.20;;;;;;;;;;5014578;28;20041;-81
2020/12/30 06:07:00;;;;;;;32.47;15.53;;;;;;;;;;5013483;28;20053;-81
2020/12/30 06:09:26;;;;;;;33.53;16.50;;;;;;;;;;5013193;28;20483;-81
2020/12/30 06:11:52;;;;;;;31.63;16.27;;;;;;;;;;5013292;28;20014;-81
2020/12/30 06:14:19;;;;;;;37.37;16.70;;;;;;;;;;5013249;28;20034;-81
2020/12/30 06:16:44;;;;;;;37.37;17.97;;;;;;;;;;5013311;28;20353;-81
2020/12/30 06:19:13;;;;;;;33.17;16.60;;;;;;;;;;5013217;28;20032;-81
2020/12/30 06:21:45;;;;;;;30.13;16.60;;;;;;;;;;5014089;28;20040;-81
2020/12/30 06:24:11;;;;;;;34.58;16.88;;;;;;;;;;5013085;28;20029;-81
2020/12/30 06:26:37;;;;;;;31.73;16.83;;;;;;;;;;5013098;28;20022;-81
2020/12/30 06:29:08;;;;;;;33.30;18.23;;;;;;;;;;5012877;28;20037;-81
2020/12/30 06:31:40;;;;;;;36.27;16.47;;;;;;;;;;5012658;28;20080;-81
2020/12/30 06:34:05;;;;;;;36.80;17.40;;;;;;;;;;5012814;28;20057;-81
2020/12/30 06:36:31;;;;;;;33.60;15.77;;;;;;;;;;5012918;28;20080;-81
2020/12/30 06:38:56;;;;;;;31.23;16.53;;;;;;;;;;5012123;28;20033;-81
2020/12/30 06:41:21;;;;;;;33.53;17.17;;;;;;;;;;5012803;28;20022;-81
2020/12/30 06:43:47;;;;;;;34.80;16.73;;;;;;;;;;5012545;28;20029;-80
2020/12/30 06:46:13;;;;;;;40.60;16.13;;;;;;;;;;5014248;28;20380;-80
2020/12/30 06:48:57;;;;;;;35.70;17.33;;;;;;;;;;5020596;28;20022;-81
2020/12/30 06:51:23;;;;;;;35.10;18.93;;;;;;;;;;5025268;28;20029;-80
2020/12/30 06:53:49;;;;;;;34.37;17.50;;;;;;;;;;5029394;28;20049;-80
2020/12/30 06:56:14;;;;;;;37.47;18.67;;;;;;;;;;5012880;28;20026;-80
2020/12/30 06:58:45;;;;;;;33.17;17.33;;;;;;;;;;5021739;28;20029;-80
2020/12/30 07:01:12;;;;;;;40.03;18.70;;;;;;;;;;5005559;28;20036;-80
2020/12/30 07:03:37;;;;;;;38.80;19.73;;;;;;;;;;5004757;28;20022;-80
2020/12/30 07:06:21;;;;;;;40.97;20.13;;;;;;;;;;5005552;28;20025;-80
2020/12/30 07:08:46;;;;;;;36.10;17.27;;;;;;;;;;5019479;28;20026;-80
2020/12/30 07:11:11;;;;;;;34.03;17.63;;;;;;;;;;5004143;28;20037;-80
2020/12/30 07:13:40;;;;;;;34.23;18.57;;;;;;;;;;5012808;28;20037;-80
2020/12/30 07:16:31;;;;;;;38.53;18.37;;;;;;;;;;5009406;28;20022;-80
2020/12/30 07:18:57;;;;;;;37.37;19.30;;;;;;;;;;4991772;28;20037;-80
2020/12/30 07:21:22;;;;;;;32.27;17.03;;;;;;;;;;5006834;28;20458;-79
2020/12/30 07:23:49;;;;;;;34.23;17.70;;;;;;;;;;5000630;28;20031;-79
2020/12/30 07:26:18;;;;;;;34.40;18.33;;;;;;;;;;5006257;28;20029;-79
2020/12/30 07:28:44;;;;;;;36.10;17.40;;;;;;;;;;5011168;28;20513;-80
2020/12/30 07:31:10;;;;;;;36.50;18.63;;;;;;;;;;5007980;28;20383;-79
2020/12/30 07:33:38;;;;;;;38.33;17.00;;;;;;;;;;5010310;28;20018;-78
2020/12/30 07:36:04;;;;;;;38.60;17.87;;;;;;;;;;5008758;28;20030;-78
2020/12/30 07:38:31;;;;;;;37.87;20.00;;;;;;;;;;5003722;28;20057;-79
2020/12/30 07:41:07;;;;;;;34.87;19.10;;;;;;;;;;5007715;28;20030;-80
2020/12/30 07:43:44;;;;;;;35.90;17.80;;;;;;;;;;5019561;28;20464;-80
2020/12/30 07:46:13;;;;;;;38.03;18.50;;;;;;;;;;5006828;28;20014;-80
2020/12/30 07:48:38;;;;;;;35.83;17.53;;;;;;;;;;5002679;28;20026;-79
2020/12/30 07:51:04;;;;;;;34.37;17.93;;;;;;;;;;5004501;28;20018;-79
2020/12/30 07:53:29;;;;;;;34.27;16.30;;;;;;;;;;5012963;28;20084;-80
2020/12/30 07:55:54;;;;;;;39.90;16.93;;;;;;;;;;5008556;28;20492;-80
2020/12/30 07:58:20;;;;;;;33.57;16.57;;;;;;;;;;5008321;28;20026;-80
2020/12/30 08:00:46;;;;;;;34.10;15.43;;;;;;;;;;5008916;28;20022;-79
2020/12/30 08:03:11;;;;;;;36.77;16.10;;;;;;;;;;5024355;28;20045;-79
2020/12/30 08:05:42;;;;;;;37.63;16.67;;;;;;;;;;5029702;28;20017;-79
2020/12/30 08:08:07;;;;;;;39.63;17.50;;;;;;;;;;5012286;28;20026;-80
2020/12/30 08:10:33;;;;;;;37.83;17.63;;;;;;;;;;5020216;28;20071;-80
2020/12/30 08:13:06;;;;;;;35.70;15.70;;;;;;;;;;5023054;28;20168;-79
2020/12/30 08:15:31;;;;;;;41.53;17.73;;;;;;;;;;5011969;28;20488;-79
2020/12/30 08:17:59;;;;;;;32.80;16.53;;;;;;;;;;5013287;28;20053;-79
2020/12/30 08:20:24;;;;;;;29.30;14.87;;;;;;;;;;5011752;28;20061;-78
2020/12/30 08:22:55;;;;;;;32.67;15.53;;;;;;;;;;5015067;28;20054;-79
2020/12/30 08:25:20;;;;;;;29.40;15.53;;;;;;;;;;5014378;28;20546;-79
2020/12/30 08:27:47;;;;;;;31.83;14.83;;;;;;;;;;5012466;28;20021;-80
2020/12/30 08:30:12;;;;;;;27.57;15.40;;;;;;;;;;5007849;28;20017;-80
2020/12/30 08:32:50;;;;;;;34.97;15.50;;;;;;;;;;5013385;28;20014;-80
2020/12/30 08:35:16;;;;;;;34.03;16.03;;;;;;;;;;5020890;28;20499;-80
2020/12/30 08:37:43;;;;;;;32.60;15.13;;;;;;;;;;5017203;28;20602;-81
2020/12/30 08:40:24;;;;;;;30.20;14.13;;;;;;;;;;5016524;28;20080;-82
2020/12/30 08:43:10;;;;;;;35.27;16.13;;;;;;;;;;5006304;28;20049;-82
2020/12/30 08:45:41;;;;;;;26.77;14.50;;;;;;;;;;5012107;28;20534;-81
2020/12/30 08:48:14;;;;;;;30.77;14.37;;;;;;;;;;5023603;28;20017;-81
2020/12/30 08:50:39;;;;;;;29.47;15.90;;;;;;;;;;5012184;28;20037;-82
2020/12/30 08:53:05;;;;;;;29.23;15.43;;;;;;;;;;5011322;28;20025;-81
2020/12/30 08:55:30;;;;;;;25.00;12.77;;;;;;;;;;5011608;28;20476;-81
2020/12/30 08:57:55;;;;;;;31.67;13.60;;;;;;;;;;5016616;28;20018;-81
2020/12/30 09:00:21;;;;;;;30.63;15.50;;;;;;;;;;5008830;28;20034;-81
2020/12/30 09:02:48;;;;;;;30.83;16.90;;;;;;;;;;5009292;28;20045;-82
2020/12/30 09:05:13;;;;;;;28.93;13.97;;;;;;;;;;5012937;28;20380;-81
2020/12/30 09:07:39;;;;;;;32.87;16.40;;;;;;;;;;5015593;28;20022;-80
2020/12/30 09:10:04;;;;;;;31.10;14.63;;;;;;;;;;5015250;28;20112;-80
2020/12/30 09:12:29;;;;;;;31.27;15.13;;;;;;;;;;5013328;28;20085;-82
2020/12/30 09:14:55;;;;;;;31.37;16.53;;;;;;;;;;5003664;28;20060;-83
2020/12/30 09:17:20;;;;;;;28.40;15.17;;;;;;;;;;5022966;28;20053;-83
2020/12/30 09:19:45;;;;;;;29.63;16.97;;;;;;;;;;5028029;28;20026;-84
2020/12/30 09:22:11;;;;;;;24.57;14.67;;;;;;;;;;5017470;28;20025;-86
2020/12/30 09:24:37;;;;;;;29.47;15.30;;;;;;;;;;5013532;28;20036;-85
2020/12/30 09:27:18;;;;;;;27.03;14.20;;;;;;;;;;5004036;28;20044;-85
2020/12/30 09:29:44;;;;;;;28.83;14.83;;;;;;;;;;5012421;28;20022;-85
2020/12/30 09:32:09;;;;;;;30.50;16.77;;;;;;;;;;5011349;28;20383;-86
2020/12/30 09:34:35;;;;;;;27.50;15.53;;;;;;;;;;5012864;28;20435;-85
2020/12/30 09:37:00;;;;;;;27.97;14.33;;;;;;;;;;5018504;28;20017;-85
2020/12/30 09:39:27;;;;;;;30.30;15.70;;;;;;;;;;5006831;28;20030;-86
2020/12/30 09:42:02;;;;;;;32.40;14.90;;;;;;;;;;5019750;28;20057;-84
2020/12/30 09:44:28;;;;;;;31.07;16.27;;;;;;;;;;5011206;28;20026;-83
2020/12/30 09:46:55;;;;;;;28.27;15.43;;;;;;;;;;5008959;28;20081;-85
2020/12/30 09:49:20;;;;;;;28.87;15.07;;;;;;;;;;5019207;28;20010;-85
2020/12/30 09:51:52;;;;;;;27.37;16.83;;;;;;;;;;5017258;28;20156;-87
2020/12/30 09:54:17;;;;;;;;;;;;;;;;;;5016580;28;20029;-84
2020/12/30 09:56:43;;;;;;;28.57;14.83;;;;;;;;;;5013608;28;19909;-85
2020/12/30 09:59:09;;;;;;;32.23;17.77;;;;;;;;;;5005656;28;20247;-85
2020/12/30 10:01:34;;;;;;;29.87;17.23;;;;;;;;;;5007287;28;20022;-86
2020/12/30 10:03:59;;;;;;;35.77;15.60;;;;;;;;;;5016140;28;20021;-86
2020/12/30 10:06:24;;;;;;;27.50;15.60;;;;;;;;;;5018167;28;20041;-86
2020/12/30 10:08:49;;;;;;;29.97;15.63;;;;;;;;;;5021330;28;20472;-86
2020/12/30 10:11:18;;;;;;;34.20;18.07;;;;;;;;;;5011173;28;20460;-86
2020/12/30 10:13:43;;;;;;;25.50;14.80;;;;;;;;;;5016655;28;20036;-85
2020/12/30 10:16:08;;;;;;;29.23;14.37;;;;;;;;;;5028895;28;20021;-84
2020/12/30 10:18:34;;;;;;;30.33;18.73;;;;;;;;;;5001419;28;20025;-85
2020/12/30 10:20:59;;;;;;;34.90;17.03;;;;;;;;;;5009644;28;20037;-86
2020/12/30 10:23:24;;;;;;;29.67;16.23;;;;;;;;;;5010137;28;20428;-85
2020/12/30 10:25:49;;;;;;;33.70;17.33;;;;;;;;;;5015705;28;20014;-85
2020/12/30 10:28:14;;;;;;;31.30;17.57;;;;;;;;;;5008172;28;20484;-86
2020/12/30 10:30:40;;;;;;;34.50;16.30;;;;;;;;;;5020123;28;20021;-87
2020/12/30 10:33:05;;;;;;;36.03;18.07;;;;;;;;;;5014140;28;20033;-86
2020/12/30 10:35:30;;;;;;;31.33;18.83;;;;;;;;;;5017430;28;20018;-86
2020/12/30 10:37:55;;;;;;;30.40;16.87;;;;;;;;;;5013226;28;20539;-86
2020/12/30 10:40:22;;;;;;;33.57;17.43;;;;;;;;;;5007455;28;20109;-85
2020/12/30 10:42:47;;;;;;;31.53;16.93;;;;;;;;;;5008501;28;20493;-87
2020/12/30 10:45:12;;;;;;;31.93;17.90;;;;;;;;;;5010659;28;20018;-86
2020/12/30 10:47:38;;;;;;;34.37;19.27;;;;;;;;;;5018493;28;20017;-86
2020/12/30 10:50:03;;;;;;;32.17;17.80;;;;;;;;;;5012940;28;20014;-85
2020/12/30 10:52:28;;;;;;;30.93;15.43;;;;;;;;;;5009603;28;20018;-84
2020/12/30 10:54:53;;;;;;;34.97;17.53;;;;;;;;;;5006800;28;20045;-85
2020/12/30 10:57:19;;;;;;;32.10;15.30;;;;;;;;;;5010431;28;20061;-84
2020/12/30 10:59:44;;;;;;;34.63;18.30;;;;;;;;;;5012656;28;20029;-86
2020/12/30 11:02:09;;;;;;;34.63;17.23;;;;;;;;;;5003932;28;20022;-86
2020/12/30 11:04:34;;;;;;;39.67;18.20;;;;;;;;;;5010345;28;20029;-86
2020/12/30 11:07:01;;;;;;;35.83;16.13;;;;;;;;;;5018623;28;20041;-86
2020/12/30 11:09:27;;;;;;;36.40;17.93;;;;;;;;;;5021824;28;20132;-86
2020/12/30 11:11:52;;;;;;;35.93;18.40;;;;;;;;;;5014557;28;20076;-85
2020/12/30 11:14:17;;;;;;;30.53;16.83;;;;;;;;;;5017765;28;20032;-86
2020/12/30 11:16:46;;;;;;;32.10;16.77;;;;;;;;;;5012205;28;20081;-86
2020/12/30 11:19:12;;;;;;;30.70;15.97;;;;;;;;;;5013742;28;20544;-86
2020/12/30 11:21:37;;;;;;;37.80;20.13;;;;;;;;;;5017159;28;20183;-86
2020/12/30 11:24:02;;;;;;;38.53;16.50;;;;;;;;;;5009681;28;20026;-86
2020/12/30 11:26:27;;;;;;;38.63;18.30;;;;;;;;;;5009560;28;20028;-85
2020/12/30 11:28:52;;;;;;;32.20;16.57;;;;;;;;;;5010773;28;20045;-85
2020/12/30 11:31:18;;;;;;;35.70;17.53;;;;;;;;;;5006426;28;20495;-85
2020/12/30 11:33:43;;;;;;;31.77;17.33;;;;;;;;;;5011875;28;20054;-84
2020/12/30 11:36:08;;;;;;;34.50;16.63;;;;;;;;;;5014699;28;20061;-86
2020/12/30 11:38:33;;;;;;;31.30;16.37;;;;;;;;;;5014279;28;20030;-86
2020/12/30 11:40:58;;;;;;;31.13;16.90;;;;;;;;;;5016072;28;20026;-86
2020/12/30 11:43:24;;;;;;;32.03;15.40;;;;;;;;;;5019238;28;20619;-85
2020/12/30 11:45:49;;;;;;;36.37;16.67;;;;;;;;;;5018959;28;20573;-86
2020/12/30 11:48:15;;;;;;;36.67;15.00;;;;;;;;;;5008871;28;20026;-86
2020/12/30 11:50:41;;;;;;;25.43;14.17;;;;;;;;;;5014033;28;20472;-85
2020/12/30 11:53:06;;;;;;;27.70;15.13;;;;;;;;;;5006546;28;20021;-85
2020/12/30 11:55:31;;;;;;;28.03;13.13;;;;;;;;;;5012652;28;20038;-85
2020/12/30 11:57:56;;;;;;;28.20;14.93;;;;;;;;;;5018335;28;20397;-84
2020/12/30 12:00:21;;;;;;;29.57;15.53;;;;;;;;;;5009869;28;20061;-85
2020/12/30 12:02:47;;;;;;;25.80;13.63;;;;;;;;;;5016074;28;20097;-85
2020/12/30 12:05:13;;;;;;;30.23;13.33;;;;;;;;;;5024780;28;20167;-86
2020/12/30 12:07:38;;;;;;;26.23;13.70;;;;;;;;;;5019122;28;20017;-86
2020/12/30 12:10:04;;;;;;;24.57;13.03;;;;;;;;;;5008753;28;20023;-86
2020/12/30 12:12:29;;;;;;;30.77;12.80;;;;;;;;;;5011978;28;20088;-86
2020/12/30 12:14:54;;;;;;;23.90;13.60;;;;;;;;;;5010667;28;20029;-85
2020/12/30 12:17:19;;;;;;;29.47;13.37;;;;;;;;;;5017547;28;20387;-86
2020/12/30 12:19:46;;;;;;;25.83;13.13;;;;;;;;;;5017091;28;20024;-87
2020/12/30 12:22:12;;;;;;;30.47;14.50;;;;;;;;;;5010063;28;20026;-86
2020/12/30 12:24:37;;;;;;;32.63;14.27;;;;;;;;;;5001592;28;20042;-86
2020/12/30 12:27:03;;;;;;;24.27;12.40;;;;;;;;;;5016502;28;20045;-84
2020/12/30 12:29:34;;;;;;;27.33;12.83;;;;;;;;;;5009451;28;20010;-85
2020/12/30 12:32:16;;;;;;;28.33;12.63;;;;;;;;;;5016557;28;20040;-85
2020/12/30 12:34:42;;;;;;;28.92;13.52;;;;;;;;;;5013548;28;20021;-85
2020/12/30 12:37:09;;;;;;;27.47;13.53;;;;;;;;;;5013715;28;20021;-85
2020/12/30 12:39:35;;;;;;;28.00;13.17;;;;;;;;;;5016539;28;20029;-86
2020/12/30 12:42:00;;;;;;;29.33;12.97;;;;;;;;;;5018609;28;20025;-85
2020/12/30 12:44:25;;;;;;;27.20;13.50;;;;;;;;;;5014441;28;20117;-86
2020/12/30 12:46:51;;;;;;;25.17;13.73;;;;;;;;;;5007559;28;20105;-85
2020/12/30 12:49:16;;;;;;;24.30;12.40;;;;;;;;;;5013789;28;20105;-86
2020/12/30 12:51:45;;;;;;;23.37;13.90;;;;;;;;;;5014750;28;20022;-85
2020/12/30 12:54:14;;;;;;;28.57;15.10;;;;;;;;;;5007979;28;20041;-85
2020/12/30 12:56:39;;;;;;;34.47;12.27;;;;;;;;;;5019051;28;20029;-86
2020/12/30 12:59:04;;;;;;;23.03;12.70;;;;;;;;;;5014724;28;20396;-86
2020/12/30 13:01:29;;;;;;;23.37;11.57;;;;;;;;;;5016937;28;20049;-87
2020/12/30 13:03:55;;;;;;;26.33;11.90;;;;;;;;;;5016100;28;20056;-86
2020/12/30 13:06:27;;;;;;;24.00;10.63;;;;;;;;;;5022448;28;20026;-85
2020/12/30 13:08:52;;;;;;;21.98;11.45;;;;;;;;;;5010681;28;20499;-85
2020/12/30 13:11:17;;;;;;;23.77;12.13;;;;;;;;;;5010070;28;20022;-84
2020/12/30 13:13:42;;;;;;;24.80;11.17;;;;;;;;;;5015800;28;20464;-84
2020/12/30 13:16:07;;;;;;;20.90;12.23;;;;;;;;;;5011013;28;20026;-84
2020/12/30 13:18:32;;;;;;;21.00;10.77;;;;;;;;;;5011587;28;20030;-85
2020/12/30 13:20:58;;;;;;;27.60;12.90;;;;;;;;;;5010651;28;20062;-84
2020/12/30 13:23:23;;;;;;;19.90;11.77;;;;;;;;;;5010373;28;20045;-85
2020/12/30 13:25:48;;;;;;;32.60;12.07;;;;;;;;;;5009094;28;20456;-85
2020/12/30 13:28:13;;;;;;;28.87;11.77;;;;;;;;;;5012582;28;20115;-85
2020/12/30 13:30:38;;;;;;;19.00;10.47;;;;;;;;;;5012290;28;20018;-85
2020/12/30 13:33:04;;;;;;;23.67;11.40;;;;;;;;;;5015781;28;20474;-86
2020/12/30 13:35:29;;;;;;;19.80;10.60;;;;;;;;;;5019488;28;20029;-85
2020/12/30 13:37:54;;;;;;;21.83;11.23;;;;;;;;;;5015677;28;20025;-87
2020/12/30 13:40:19;;;;;;;23.10;10.53;;;;;;;;;;5013281;28;20045;-86
2020/12/30 13:42:44;;;;;;;24.97;10.87;;;;;;;;;;5011681;28;20364;-85
2020/12/30 13:45:10;;;;;;;23.03;9.70;;;;;;;;;;5022344;28;20112;-85
2020/12/30 13:47:35;;;;;;;20.03;10.80;;;;;;;;;;5020815;28;20449;-86
2020/12/30 13:50:00;;;;;;;21.23;11.53;;;;;;;;;;5017503;28;20034;-85
2020/12/30 13:52:25;;;;;;;21.93;10.37;;;;;;;;;;5012239;28;20726;-87
2020/12/30 13:54:51;;;;;;;20.07;10.30;;;;;;;;;;5015168;28;20014;-86
2020/12/30 13:57:16;;;;;;;23.60;10.50;;;;;;;;;;5012484;28;20145;-86
2020/12/30 13:59:41;;;;;;;20.23;9.80;;;;;;;;;;5013045;28;20057;-85
2020/12/30 14:02:07;;;;;;;16.53;8.93;;;;;;;;;;5014374;28;20025;-86
2020/12/30 14:04:32;;;;;;;20.47;9.93;;;;;;;;;;5016682;28;20044;-86
2020/12/30 14:06:58;;;;;;;19.13;9.60;;;;;;;;;;5016259;28;20104;-86
2020/12/30 14:09:23;;;;;;;22.03;9.70;;;;;;;;;;5013773;28;20022;-86
2020/12/30 14:11:48;;;;;;;18.33;8.40;;;;;;;;;;5008346;28;20101;-85